Terminal Aerodrome Forecast
Issued by NWS

Home | Current Version | Previous Version | Text Only | Print | Product List | Glossary On
Versions: 1 2 3 4 5 6 7 8 9 10 11 12 13 14 15 16 17 18 19 20 21 22 23 24 25 26 27 28
386
FTUS44 KEWX 231731
TAFSSF
TAF
KSSF 231731Z 2318/2418 16016G26KT P6SM FEW023 SCT250
     FM232300 15016KT P6SM SCT250
     FM240700 15010KT P6SM OVC015
     FM241600 17009KT P6SM VCSH BKN009=

USA.gov is the U.S. government's official web portal to all federal, state and local government web resources and services.